sensor_id;sensor_type;location;lat;lon;timestamp;temperature;humidity
2002;DHT22;1003;48.002;7.788;2023-04-24T00:01:41;11.40;99.90
2002;DHT22;1003;48.002;7.788;2023-04-24T00:04:08;11.40;99.90
2002;DHT22;1003;48.002;7.788;2023-04-24T00:06:36;11.40;99.90
2002;DHT22;1003;48.002;7.788;2023-04-24T00:09:04;11.50;99.90
2002;DHT22;1003;48.002;7.788;2023-04-24T00:11:32;11.40;99.90
2002;DHT22;1003;48.002;7.788;2023-04-24T00:13:59;11.40;99.90
2002;DHT22;1003;48.002;7.788;2023-04-24T00:16:26;11.40;99.90
2002;DHT22;1003;48.002;7.788;2023-04-24T00:18:53;11.30;99.90
2002;DHT22;1003;48.002;7.788;2023-04-24T00:21:20;11.30;99.90
2002;DHT22;1003;48.002;7.788;2023-04-24T00:23:51;11.30;99.90
2002;DHT22;1003;48.002;7.788;2023-04-24T00:26:18;11.30;99.90
2002;DHT22;1003;48.002;7.788;2023-04-24T00:28:46;11.30;99.90
2002;DHT22;1003;48.002;7.788;2023-04-24T00:31:13;11.30;99.90
2002;DHT22;1003;48.002;7.788;2023-04-24T00:33:40;11.40;99.90
2002;DHT22;1003;48.002;7.788;2023-04-24T00:36:08;11.40;99.90
2002;DHT22;1003;48.002;7.788;2023-04-24T00:38:35;11.40;99.90
2002;DHT22;1003;48.002;7.788;2023-04-24T00:41:02;11.50;99.90
2002;DHT22;1003;48.002;7.788;2023-04-24T00:43:29;11.50;99.90
2002;DHT22;1003;48.002;7.788;2023-04-24T00:45:57;11.50;99.90
2002;DHT22;1003;48.002;7.788;2023-04-24T00:48:27;11.50;99.90
2002;DHT22;1003;48.002;7.788;2023-04-24T00:50:55;11.60;99.90
2002;DHT22;1003;48.002;7.788;2023-04-24T00:53:22;11.60;99.90
2002;DHT22;1003;48.002;7.788;2023-04-24T00:55:50;11.60;99.90
2002;DHT22;1003;48.002;7.788;2023-04-24T00:58:17;11.50;99.90
2002;DHT22;1003;48.002;7.788;2023-04-24T01:00:45;11.50;99.90
2002;DHT22;1003;48.002;7.788;2023-04-24T01:03:14;11.60;99.90
2002;DHT22;1003;48.002;7.788;2023-04-24T01:05:42;11.50;99.90
2002;DHT22;1003;48.002;7.788;2023-04-24T01:08:09;11.50;99.90
2002;DHT22;1003;48.002;7.788;2023-04-24T01:10:37;11.40;99.90
2002;DHT22;1003;48.002;7.788;2023-04-24T01:13:08;11.30;99.90
2002;DHT22;1003;48.002;7.788;2023-04-24T01:15:35;11.20;99.90
2002;DHT22;1003;48.002;7.788;2023-04-24T01:18:02;11.20;99.90
2002;DHT22;1003;48.002;7.788;2023-04-24T01:20:31;11.20;99.90
2002;DHT22;1003;48.002;7.788;2023-04-24T01:23:01;11.30;99.90
2002;DHT22;1003;48.002;7.788;2023-04-24T01:25:29;11.30;99.90
2002;DHT22;1003;48.002;7.788;2023-04-24T01:27:57;11.30;99.90
2002;DHT22;1003;48.002;7.788;2023-04-24T01:30:24;11.30;99.90
2002;DHT22;1003;48.002;7.788;2023-04-24T01:32:52;11.30;99.90
2002;DHT22;1003;48.002;7.788;2023-04-24T01:35:20;11.40;99.90
2002;DHT22;1003;48.002;7.788;2023-04-24T01:37:47;11.40;99.90
2002;DHT22;1003;48.002;7.788;2023-04-24T01:40:15;11.40;99.90
2002;DHT22;1003;48.002;7.788;2023-04-24T01:42:43;11.30;99.90
2002;DHT22;1003;48.002;7.788;2023-04-24T01:45:11;11.30;99.90
2002;DHT22;1003;48.002;7.788;2023-04-24T01:47:39;11.20;99.90
2002;DHT22;1003;48.002;7.788;2023-04-24T01:50:07;11.10;99.90
2002;DHT22;1003;48.002;7.788;2023-04-24T01:52:35;11.00;99.90
2002;DHT22;1003;48.002;7.788;2023-04-24T01:55:03;11.00;99.90
2002;DHT22;1003;48.002;7.788;2023-04-24T01:57:33;11.10;99.90
2002;DHT22;1003;48.002;7.788;2023-04-24T02:00:00;11.00;99.90
2002;DHT22;1003;48.002;7.788;2023-04-24T02:02:29;10.90;99.90
2002;DHT22;1003;48.002;7.788;2023-04-24T02:04:57;10.90;99.90
2002;DHT22;1003;48.002;7.788;2023-04-24T02:07:26;10.90;99.90
2002;DHT22;1003;48.002;7.788;2023-04-24T02:09:53;11.00;99.90
2002;DHT22;1003;48.002;7.788;2023-04-24T02:12:20;11.00;99.90
2002;DHT22;1003;48.002;7.788;2023-04-24T02:14:49;11.10;99.90
2002;DHT22;1003;48.002;7.788;2023-04-24T02:17:16;11.20;99.90
2002;DHT22;1003;48.002;7.788;2023-04-24T02:19:44;11.20;99.90
2002;DHT22;1003;48.002;7.788;2023-04-24T02:22:12;11.20;99.90
2002;DHT22;1003;48.002;7.788;2023-04-24T02:24:39;11.20;99.90
2002;DHT22;1003;48.002;7.788;2023-04-24T02:27:06;11.20;99.90
2002;DHT22;1003;48.002;7.788;2023-04-24T02:29:34;11.20;99.90
2002;DHT22;1003;48.002;7.788;2023-04-24T02:32:02;11.20;99.90
2002;DHT22;1003;48.002;7.788;2023-04-24T02:34:29;11.10;99.90
2002;DHT22;1003;48.002;7.788;2023-04-24T02:36:56;11.00;99.90
2002;DHT22;1003;48.002;7.788;2023-04-24T02:39:24;10.90;99.90
2002;DHT22;1003;48.002;7.788;2023-04-24T02:41:50;11.00;99.90
2002;DHT22;1003;48.002;7.788;2023-04-24T02:44:18;10.90;99.90
2002;DHT22;1003;48.002;7.788;2023-04-24T02:46:44;10.90;99.90
2002;DHT22;1003;48.002;7.788;2023-04-24T02:49:13;10.90;99.90
2002;DHT22;1003;48.002;7.788;2023-04-24T02:51:40;11.00;99.90
2002;DHT22;1003;48.002;7.788;2023-04-24T02:54:08;11.00;99.90
2002;DHT22;1003;48.002;7.788;2023-04-24T02:56:35;11.00;99.90
2002;DHT22;1003;48.002;7.788;2023-04-24T02:59:02;11.00;99.90
2002;DHT22;1003;48.002;7.788;2023-04-24T03:01:29;11.10;99.90
2002;DHT22;1003;48.002;7.788;2023-04-24T03:03:56;11.20;99.90
2002;DHT22;1003;48.002;7.788;2023-04-24T03:06:25;11.30;99.90
2002;DHT22;1003;48.002;7.788;2023-04-24T03:08:53;11.40;99.90
2002;DHT22;1003;48.002;7.788;2023-04-24T03:11:20;11.30;99.90
2002;DHT22;1003;48.002;7.788;2023-04-24T03:13:47;11.30;99.90
2002;DHT22;1003;48.002;7.788;2023-04-24T03:16:14;11.30;99.90
2002;DHT22;1003;48.002;7.788;2023-04-24T03:18:41;11.30;99.90
2002;DHT22;1003;48.002;7.788;2023-04-24T03:21:08;11.30;99.90
2002;DHT22;1003;48.002;7.788;2023-04-24T03:23:37;11.30;99.90
2002;DHT22;1003;48.002;7.788;2023-04-24T03:26:04;11.30;99.90
2002;DHT22;1003;48.002;7.788;2023-04-24T03:28:31;11.30;99.90
2002;DHT22;1003;48.002;7.788;2023-04-24T03:30:58;11.30;99.90
2002;DHT22;1003;48.002;7.788;2023-04-24T03:33:25;11.30;99.90
2002;DHT22;1003;48.002;7.788;2023-04-24T03:35:52;11.30;99.90
2002;DHT22;1003;48.002;7.788;2023-04-24T03:38:19;11.20;99.90
2002;DHT22;1003;48.002;7.788;2023-04-24T03:40:47;11.20;99.90
2002;DHT22;1003;48.002;7.788;2023-04-24T03:43:14;11.20;99.90
2002;DHT22;1003;48.002;7.788;2023-04-24T03:45:42;11.20;99.90
2002;DHT22;1003;48.002;7.788;2023-04-24T03:48:09;11.20;99.90
2002;DHT22;1003;48.002;7.788;2023-04-24T03:50:36;11.20;99.90
2002;DHT22;1003;48.002;7.788;2023-04-24T03:53:03;11.20;99.90
2002;DHT22;1003;48.002;7.788;2023-04-24T03:55:30;11.10;99.90
2002;DHT22;1003;48.002;7.788;2023-04-24T03:57:59;11.10;99.90
2002;DHT22;1003;48.002;7.788;2023-04-24T04:00:26;11.10;99.90
2002;DHT22;1003;48.002;7.788;2023-04-24T04:02:53;11.10;99.90
2002;DHT22;1003;48.002;7.788;2023-04-24T04:05:20;11.20;99.90
2002;DHT22;1003;48.002;7.788;2023-04-24T04:07:47;11.10;99.90
2002;DHT22;1003;48.002;7.788;2023-04-24T04:10:14;11.10;99.90
2002;DHT22;1003;48.002;7.788;2023-04-24T04:12:42;11.10;99.90
2002;DHT22;1003;48.002;7.788;2023-04-24T04:15:11;11.10;99.90
2002;DHT22;1003;48.002;7.788;2023-04-24T04:17:38;11.10;99.90
2002;DHT22;1003;48.002;7.788;2023-04-24T04:20:06;11.10;99.90
2002;DHT22;1003;48.002;7.788;2023-04-24T04:22:35;11.00;99.90
2002;DHT22;1003;48.002;7.788;2023-04-24T04:25:02;10.90;99.90
2002;DHT22;1003;48.002;7.788;2023-04-24T04:27:30;10.90;99.90
2002;DHT22;1003;48.002;7.788;2023-04-24T04:29:58;10.90;99.90
2002;DHT22;1003;48.002;7.788;2023-04-24T04:32:29;10.90;99.90
2002;DHT22;1003;48.002;7.788;2023-04-24T04:34:56;10.80;99.90
2002;DHT22;1003;48.002;7.788;2023-04-24T04:37:24;10.80;99.90
2002;DHT22;1003;48.002;7.788;2023-04-24T04:39:51;10.80;99.90
2002;DHT22;1003;48.002;7.788;2023-04-24T04:42:19;10.80;99.90
2002;DHT22;1003;48.002;7.788;2023-04-24T04:44:46;10.80;99.90
2002;DHT22;1003;48.002;7.788;2023-04-24T04:47:13;10.80;99.90
2002;DHT22;1003;48.002;7.788;2023-04-24T04:49:41;10.80;99.90
2002;DHT22;1003;48.002;7.788;2023-04-24T04:52:08;10.70;99.90
2002;DHT22;1003;48.002;7.788;2023-04-24T04:54:35;10.70;99.90
2002;DHT22;1003;48.002;7.788;2023-04-24T04:57:02;10.70;99.90
2002;DHT22;1003;48.002;7.788;2023-04-24T04:59:29;10.80;99.90
2002;DHT22;1003;48.002;7.788;2023-04-24T05:01:56;10.90;99.90
2002;DHT22;1003;48.002;7.788;2023-04-24T05:04:23;10.80;99.90
2002;DHT22;1003;48.002;7.788;2023-04-24T05:06:52;10.90;99.90
2002;DHT22;1003;48.002;7.788;2023-04-24T05:09:19;10.90;99.90
2002;DHT22;1003;48.002;7.788;2023-04-24T05:11:46;10.80;99.90
2002;DHT22;1003;48.002;7.788;2023-04-24T05:14:13;10.80;99.90
2002;DHT22;1003;48.002;7.788;2023-04-24T05:16:40;10.80;99.90
2002;DHT22;1003;48.002;7.788;2023-04-24T05:19:07;10.80;99.90
2002;DHT22;1003;48.002;7.788;2023-04-24T05:21:34;10.80;99.90
2002;DHT22;1003;48.002;7.788;2023-04-24T05:24:03;10.80;99.90
2002;DHT22;1003;48.002;7.788;2023-04-24T05:26:30;10.70;99.90
2002;DHT22;1003;48.002;7.788;2023-04-24T05:28:58;10.70;99.90
2002;DHT22;1003;48.002;7.788;2023-04-24T05:31:27;10.80;99.90
2002;DHT22;1003;48.002;7.788;2023-04-24T05:33:54;10.70;99.90
2002;DHT22;1003;48.002;7.788;2023-04-24T05:36:21;10.70;99.90
2002;DHT22;1003;48.002;7.788;2023-04-24T05:38:48;10.70;99.90
2002;DHT22;1003;48.002;7.788;2023-04-24T05:41:16;10.70;99.90
2002;DHT22;1003;48.002;7.788;2023-04-24T05:43:43;10.70;99.90
2002;DHT22;1003;48.002;7.788;2023-04-24T05:46:11;10.70;99.90
2002;DHT22;1003;48.002;7.788;2023-04-24T05:48:38;10.60;99.90
2002;DHT22;1003;48.002;7.788;2023-04-24T05:51:05;10.60;99.90
2002;DHT22;1003;48.002;7.788;2023-04-24T05:53:32;10.50;99.90
2002;DHT22;1003;48.002;7.788;2023-04-24T05:56:00;10.60;99.90
2002;DHT22;1003;48.002;7.788;2023-04-24T05:58:28;10.50;99.90
2002;DHT22;1003;48.002;7.788;2023-04-24T06:00:55;10.50;99.90
2002;DHT22;1003;48.002;7.788;2023-04-24T06:03:24;10.60;99.90
2002;DHT22;1003;48.002;7.788;2023-04-24T06:05:51;10.70;99.90
2002;DHT22;1003;48.002;7.788;2023-04-24T06:08:19;11.00;99.90
2002;DHT22;1003;48.002;7.788;2023-04-24T06:10:46;11.40;99.90
2002;DHT22;1003;48.002;7.788;2023-04-24T06:13:13;11.80;99.90
2002;DHT22;1003;48.002;7.788;2023-04-24T06:15:42;12.30;99.90
2002;DHT22;1003;48.002;7.788;2023-04-24T06:18:09;12.50;99.90
2002;DHT22;1003;48.002;7.788;2023-04-24T06:20:38;12.60;99.90
2002;DHT22;1003;48.002;7.788;2023-04-24T06:23:05;12.40;99.90
2002;DHT22;1003;48.002;7.788;2023-04-24T06:25:32;12.40;99.90
2002;DHT22;1003;48.002;7.788;2023-04-24T06:27:59;12.30;99.90
2002;DHT22;1003;48.002;7.788;2023-04-24T06:30:27;12.00;99.90
2002;DHT22;1003;48.002;7.788;2023-04-24T06:32:55;11.90;99.90
2002;DHT22;1003;48.002;7.788;2023-04-24T06:35:23;11.80;99.90
2002;DHT22;1003;48.002;7.788;2023-04-24T06:37:51;11.70;99.90
2002;DHT22;1003;48.002;7.788;2023-04-24T06:40:18;11.50;99.90
2002;DHT22;1003;48.002;7.788;2023-04-24T06:42:45;11.60;99.90
2002;DHT22;1003;48.002;7.788;2023-04-24T06:45:12;11.60;99.90
2002;DHT22;1003;48.002;7.788;2023-04-24T06:47:40;11.70;99.90
2002;DHT22;1003;48.002;7.788;2023-04-24T06:50:09;11.60;99.90
2002;DHT22;1003;48.002;7.788;2023-04-24T06:52:37;11.70;99.90
2002;DHT22;1003;48.002;7.788;2023-04-24T06:55:04;11.70;99.90
2002;DHT22;1003;48.002;7.788;2023-04-24T06:57:33;11.80;99.90
2002;DHT22;1003;48.002;7.788;2023-04-24T07:00:00;11.90;99.90
2002;DHT22;1003;48.002;7.788;2023-04-24T07:02:28;11.90;99.90
2002;DHT22;1003;48.002;7.788;2023-04-24T07:04:55;12.00;99.90
2002;DHT22;1003;48.002;7.788;2023-04-24T07:07:23;12.00;99.90
2002;DHT22;1003;48.002;7.788;2023-04-24T07:09:50;12.10;99.90
2002;DHT22;1003;48.002;7.788;2023-04-24T07:12:17;12.20;99.90
2002;DHT22;1003;48.002;7.788;2023-04-24T07:14:46;12.20;99.90
2002;DHT22;1003;48.002;7.788;2023-04-24T07:17:13;12.40;99.90
2002;DHT22;1003;48.002;7.788;2023-04-24T07:19:40;12.60;99.90
2002;DHT22;1003;48.002;7.788;2023-04-24T07:22:08;13.00;99.90
2002;DHT22;1003;48.002;7.788;2023-04-24T07:24:38;13.60;99.90
2002;DHT22;1003;48.002;7.788;2023-04-24T07:27:05;14.30;99.90
2002;DHT22;1003;48.002;7.788;2023-04-24T07:29:32;14.80;99.90
2002;DHT22;1003;48.002;7.788;2023-04-24T07:31:59;15.20;99.90
2002;DHT22;1003;48.002;7.788;2023-04-24T07:34:26;15.60;99.90
2002;DHT22;1003;48.002;7.788;2023-04-24T07:36:53;15.90;99.90
2002;DHT22;1003;48.002;7.788;2023-04-24T07:39:20;16.20;99.90
2002;DHT22;1003;48.002;7.788;2023-04-24T07:41:49;16.50;99.90
2002;DHT22;1003;48.002;7.788;2023-04-24T07:44:16;16.60;99.90
2002;DHT22;1003;48.002;7.788;2023-04-24T07:46:43;16.60;99.90
2002;DHT22;1003;48.002;7.788;2023-04-24T07:49:10;16.70;99.90
2002;DHT22;1003;48.002;7.788;2023-04-24T07:51:37;17.00;99.90
2002;DHT22;1003;48.002;7.788;2023-04-24T07:54:04;16.40;99.90
2002;DHT22;1003;48.002;7.788;2023-04-24T07:56:32;15.80;99.90
2002;DHT22;1003;48.002;7.788;2023-04-24T07:59:01;15.50;99.90
2002;DHT22;1003;48.002;7.788;2023-04-24T08:01:28;15.10;99.90
2002;DHT22;1003;48.002;7.788;2023-04-24T08:03:55;14.90;99.90
2002;DHT22;1003;48.002;7.788;2023-04-24T08:06:22;14.80;99.90
2002;DHT22;1003;48.002;7.788;2023-04-24T08:08:51;14.70;99.90
2002;DHT22;1003;48.002;7.788;2023-04-24T08:11:18;14.60;99.90
2002;DHT22;1003;48.002;7.788;2023-04-24T08:13:45;15.10;99.90
2002;DHT22;1003;48.002;7.788;2023-04-24T08:16:13;15.20;99.90
2002;DHT22;1003;48.002;7.788;2023-04-24T08:18:41;15.10;99.90
2002;DHT22;1003;48.002;7.788;2023-04-24T08:21:08;15.00;99.90
2002;DHT22;1003;48.002;7.788;2023-04-24T08:23:36;15.40;99.90
2002;DHT22;1003;48.002;7.788;2023-04-24T08:26:03;15.60;99.90
2002;DHT22;1003;48.002;7.788;2023-04-24T08:28:32;16.00;99.90
2002;DHT22;1003;48.002;7.788;2023-04-24T08:30:59;15.80;99.90
2002;DHT22;1003;48.002;7.788;2023-04-24T08:33:28;15.70;99.90
2002;DHT22;1003;48.002;7.788;2023-04-24T08:35:59;16.00;99.90
2002;DHT22;1003;48.002;7.788;2023-04-24T08:38:26;15.90;99.90
2002;DHT22;1003;48.002;7.788;2023-04-24T08:40:54;15.90;99.90
2002;DHT22;1003;48.002;7.788;2023-04-24T08:43:25;15.70;99.90
2002;DHT22;1003;48.002;7.788;2023-04-24T08:45:55;16.00;99.90
2002;DHT22;1003;48.002;7.788;2023-04-24T08:48:25;15.90;99.90
2002;DHT22;1003;48.002;7.788;2023-04-24T08:50:56;15.90;99.90
2002;DHT22;1003;48.002;7.788;2023-04-24T08:53:24;16.10;99.90
2002;DHT22;1003;48.002;7.788;2023-04-24T08:55:54;16.00;99.90
2002;DHT22;1003;48.002;7.788;2023-04-24T08:58:23;15.90;99.90
2002;DHT22;1003;48.002;7.788;2023-04-24T09:00:53;15.80;99.90
2002;DHT22;1003;48.002;7.788;2023-04-24T09:03:21;15.90;99.90
2002;DHT22;1003;48.002;7.788;2023-04-24T09:05:51;16.10;99.90
2002;DHT22;1003;48.002;7.788;2023-04-24T09:08:20;16.20;99.90
2002;DHT22;1003;48.002;7.788;2023-04-24T09:10:51;16.10;99.90
2002;DHT22;1003;48.002;7.788;2023-04-24T09:13:19;16.20;99.90
2002;DHT22;1003;48.002;7.788;2023-04-24T09:15:47;15.90;99.90
2002;DHT22;1003;48.002;7.788;2023-04-24T09:18:14;15.90;99.90
2002;DHT22;1003;48.002;7.788;2023-04-24T09:20:58;15.50;99.90
2002;DHT22;1003;48.002;7.788;2023-04-24T09:23:27;15.40;99.90
2002;DHT22;1003;48.002;7.788;2023-04-24T09:25:56;15.20;99.90
2002;DHT22;1003;48.002;7.788;2023-04-24T09:28:26;15.10;99.90
2002;DHT22;1003;48.002;7.788;2023-04-24T09:31:03;15.40;99.90
2002;DHT22;1003;48.002;7.788;2023-04-24T09:33:32;15.30;99.90
2002;DHT22;1003;48.002;7.788;2023-04-24T09:36:01;15.20;99.90
2002;DHT22;1003;48.002;7.788;2023-04-24T09:38:33;14.90;99.90
2002;DHT22;1003;48.002;7.788;2023-04-24T09:41:02;14.90;99.90
2002;DHT22;1003;48.002;7.788;2023-04-24T09:43:31;15.10;99.90
2002;DHT22;1003;48.002;7.788;2023-04-24T09:46:04;15.20;99.90
2002;DHT22;1003;48.002;7.788;2023-04-24T09:48:33;15.40;99.90
2002;DHT22;1003;48.002;7.788;2023-04-24T09:51:05;15.50;99.90
2002;DHT22;1003;48.002;7.788;2023-04-24T09:53:36;15.00;99.90
2002;DHT22;1003;48.002;7.788;2023-04-24T09:56:07;15.00;99.90
2002;DHT22;1003;48.002;7.788;2023-04-24T09:58:36;14.90;99.90
2002;DHT22;1003;48.002;7.788;2023-04-24T10:01:03;14.90;99.90
2002;DHT22;1003;48.002;7.788;2023-04-24T10:03:31;14.80;99.90
2002;DHT22;1003;48.002;7.788;2023-04-24T10:06:01;14.90;99.90
2002;DHT22;1003;48.002;7.788;2023-04-24T10:08:34;15.40;99.90
2002;DHT22;1003;48.002;7.788;2023-04-24T10:11:03;15.60;99.90
2002;DHT22;1003;48.002;7.788;2023-04-24T10:13:30;15.50;99.90
2002;DHT22;1003;48.002;7.788;2023-04-24T10:16:00;15.70;99.90
2002;DHT22;1003;48.002;7.788;2023-04-24T10:18:30;15.70;99.90
2002;DHT22;1003;48.002;7.788;2023-04-24T10:21:00;15.60;99.90
2002;DHT22;1003;48.002;7.788;2023-04-24T10:23:30;15.60;99.90
2002;DHT22;1003;48.002;7.788;2023-04-24T10:25:58;15.90;99.90
2002;DHT22;1003;48.002;7.788;2023-04-24T10:28:28;15.80;99.90
2002;DHT22;1003;48.002;7.788;2023-04-24T10:30:57;15.80;99.90
2002;DHT22;1003;48.002;7.788;2023-04-24T10:33:26;16.30;99.90
2002;DHT22;1003;48.002;7.788;2023-04-24T10:35:53;16.80;99.90
2002;DHT22;1003;48.002;7.788;2023-04-24T10:38:25;16.60;99.90
2002;DHT22;1003;48.002;7.788;2023-04-24T10:40:58;16.40;99.90
2002;DHT22;1003;48.002;7.788;2023-04-24T10:43:35;16.10;99.90
2002;DHT22;1003;48.002;7.788;2023-04-24T10:46:03;16.00;99.90
2002;DHT22;1003;48.002;7.788;2023-04-24T10:48:32;15.80;99.90
2002;DHT22;1003;48.002;7.788;2023-04-24T10:51:01;16.20;99.90
2002;DHT22;1003;48.002;7.788;2023-04-24T10:53:30;16.20;99.90
2002;DHT22;1003;48.002;7.788;2023-04-24T10:55:59;16.00;99.90
2002;DHT22;1003;48.002;7.788;2023-04-24T10:58:37;16.50;99.90
2002;DHT22;1003;48.002;7.788;2023-04-24T11:01:06;16.50;99.90
2002;DHT22;1003;48.002;7.788;2023-04-24T11:03:34;16.70;99.90
2002;DHT22;1003;48.002;7.788;2023-04-24T11:06:04;16.70;99.90
2002;DHT22;1003;48.002;7.788;2023-04-24T11:08:39;16.60;99.90
2002;DHT22;1003;48.002;7.788;2023-04-24T11:11:12;16.50;99.90
2002;DHT22;1003;48.002;7.788;2023-04-24T11:14:03;16.30;99.90
2002;DHT22;1003;48.002;7.788;2023-04-24T11:16:34;16.10;99.90
2002;DHT22;1003;48.002;7.788;2023-04-24T11:19:05;15.90;99.90
2002;DHT22;1003;48.002;7.788;2023-04-24T11:21:41;15.80;99.90
2002;DHT22;1003;48.002;7.788;2023-04-24T11:24:27;15.60;99.90
2002;DHT22;1003;48.002;7.788;2023-04-24T11:27:05;15.60;99.90
2002;DHT22;1003;48.002;7.788;2023-04-24T11:29:42;15.70;99.90
2002;DHT22;1003;48.002;7.788;2023-04-24T11:32:18;16.00;99.90
2002;DHT22;1003;48.002;7.788;2023-04-24T11:34:51;16.20;99.90
2002;DHT22;1003;48.002;7.788;2023-04-24T11:37:21;16.30;99.90
2002;DHT22;1003;48.002;7.788;2023-04-24T11:39:52;16.50;99.90
2002;DHT22;1003;48.002;7.788;2023-04-24T11:42:21;16.30;99.90
2002;DHT22;1003;48.002;7.788;2023-04-24T11:44:49;16.70;99.90
2002;DHT22;1003;48.002;7.788;2023-04-24T11:47:19;17.00;99.90
2002;DHT22;1003;48.002;7.788;2023-04-24T11:49:50;17.20;99.90
2002;DHT22;1003;48.002;7.788;2023-04-24T11:52:19;16.80;99.90
2002;DHT22;1003;48.002;7.788;2023-04-24T11:54:50;16.80;99.90
2002;DHT22;1003;48.002;7.788;2023-04-24T11:57:19;16.60;99.90
2002;DHT22;1003;48.002;7.788;2023-04-24T11:59:47;16.30;99.90
2002;DHT22;1003;48.002;7.788;2023-04-24T12:02:21;16.00;99.90
2002;DHT22;1003;48.002;7.788;2023-04-24T12:04:49;16.20;99.90
2002;DHT22;1003;48.002;7.788;2023-04-24T12:07:17;16.20;99.90
2002;DHT22;1003;48.002;7.788;2023-04-24T12:09:45;16.20;99.90
2002;DHT22;1003;48.002;7.788;2023-04-24T12:12:16;16.00;99.90
2002;DHT22;1003;48.002;7.788;2023-04-24T12:14:47;15.70;99.90
2002;DHT22;1003;48.002;7.788;2023-04-24T12:17:16;15.70;99.90
2002;DHT22;1003;48.002;7.788;2023-04-24T12:19:47;15.60;99.90
2002;DHT22;1003;48.002;7.788;2023-04-24T12:22:14;15.50;99.90
2002;DHT22;1003;48.002;7.788;2023-04-24T12:24:58;15.30;99.90
2002;DHT22;1003;48.002;7.788;2023-04-24T12:27:31;15.30;99.90
2002;DHT22;1003;48.002;7.788;2023-04-24T12:30:00;15.10;99.90
2002;DHT22;1003;48.002;7.788;2023-04-24T12:32:27;15.40;99.90
2002;DHT22;1003;48.002;7.788;2023-04-24T12:34:55;15.20;99.90
2002;DHT22;1003;48.002;7.788;2023-04-24T12:37:23;15.20;99.90
2002;DHT22;1003;48.002;7.788;2023-04-24T12:40:03;15.40;99.90
2002;DHT22;1003;48.002;7.788;2023-04-24T12:42:34;15.80;99.90
2002;DHT22;1003;48.002;7.788;2023-04-24T12:45:03;16.10;99.90
2002;DHT22;1003;48.002;7.788;2023-04-24T12:47:32;16.50;99.90
2002;DHT22;1003;48.002;7.788;2023-04-24T12:50:00;16.70;99.90
2002;DHT22;1003;48.002;7.788;2023-04-24T12:52:29;16.90;99.90
2002;DHT22;1003;48.002;7.788;2023-04-24T12:54:58;16.80;99.90
2002;DHT22;1003;48.002;7.788;2023-04-24T12:57:27;16.90;99.90
2002;DHT22;1003;48.002;7.788;2023-04-24T12:59:58;16.80;99.90
2002;DHT22;1003;48.002;7.788;2023-04-24T13:02:28;16.90;99.90
2002;DHT22;1003;48.002;7.788;2023-04-24T13:04:56;17.20;99.90
2002;DHT22;1003;48.002;7.788;2023-04-24T13:07:24;17.30;99.90
2002;DHT22;1003;48.002;7.788;2023-04-24T13:09:52;17.60;99.90
2002;DHT22;1003;48.002;7.788;2023-04-24T13:12:22;17.60;99.90
2002;DHT22;1003;48.002;7.788;2023-04-24T13:14:51;17.60;99.90
2002;DHT22;1003;48.002;7.788;2023-04-24T13:17:20;17.40;99.90
2002;DHT22;1003;48.002;7.788;2023-04-24T13:19:49;17.20;99.90
2002;DHT22;1003;48.002;7.788;2023-04-24T13:22:17;17.10;99.90
2002;DHT22;1003;48.002;7.788;2023-04-24T13:24:45;17.00;99.90
2002;DHT22;1003;48.002;7.788;2023-04-24T13:27:14;17.00;99.90
2002;DHT22;1003;48.002;7.788;2023-04-24T13:29:41;17.20;99.90
2002;DHT22;1003;48.002;7.788;2023-04-24T13:32:08;17.20;99.90
2002;DHT22;1003;48.002;7.788;2023-04-24T13:34:37;17.50;99.90
2002;DHT22;1003;48.002;7.788;2023-04-24T13:37:04;17.30;99.90
2002;DHT22;1003;48.002;7.788;2023-04-24T13:39:33;16.90;99.90
2002;DHT22;1003;48.002;7.788;2023-04-24T13:42:00;17.00;99.90
2002;DHT22;1003;48.002;7.788;2023-04-24T13:44:27;17.20;99.90
2002;DHT22;1003;48.002;7.788;2023-04-24T13:46:55;17.00;99.90
2002;DHT22;1003;48.002;7.788;2023-04-24T13:49:23;16.90;99.90
2002;DHT22;1003;48.002;7.788;2023-04-24T13:51:53;17.10;99.90
2002;DHT22;1003;48.002;7.788;2023-04-24T13:54:21;17.30;99.90
2002;DHT22;1003;48.002;7.788;2023-04-24T13:56:49;17.30;99.90
2002;DHT22;1003;48.002;7.788;2023-04-24T13:59:16;17.10;99.90
2002;DHT22;1003;48.002;7.788;2023-04-24T14:01:43;16.90;99.90
2002;DHT22;1003;48.002;7.788;2023-04-24T14:04:11;16.80;99.90
2002;DHT22;1003;48.002;7.788;2023-04-24T14:06:38;16.70;99.90
2002;DHT22;1003;48.002;7.788;2023-04-24T14:09:06;16.70;99.90
2002;DHT22;1003;48.002;7.788;2023-04-24T14:11:34;16.70;99.90
2002;DHT22;1003;48.002;7.788;2023-04-24T14:14:01;16.60;99.90
2002;DHT22;1003;48.002;7.788;2023-04-24T14:16:29;16.70;99.90
2002;DHT22;1003;48.002;7.788;2023-04-24T14:18:57;16.90;99.90
2002;DHT22;1003;48.002;7.788;2023-04-24T14:21:24;17.10;99.90
2002;DHT22;1003;48.002;7.788;2023-04-24T14:23:51;17.10;99.90
2002;DHT22;1003;48.002;7.788;2023-04-24T14:26:19;16.50;99.90
2002;DHT22;1003;48.002;7.788;2023-04-24T14:28:47;16.50;99.90
2002;DHT22;1003;48.002;7.788;2023-04-24T14:31:14;16.60;99.90
2002;DHT22;1003;48.002;7.788;2023-04-24T14:33:41;16.50;99.90
2002;DHT22;1003;48.002;7.788;2023-04-24T14:36:08;16.40;99.90
2002;DHT22;1003;48.002;7.788;2023-04-24T14:38:35;16.20;99.90
2002;DHT22;1003;48.002;7.788;2023-04-24T14:41:02;16.00;99.90
2002;DHT22;1003;48.002;7.788;2023-04-24T14:43:39;16.20;99.90
2002;DHT22;1003;48.002;7.788;2023-04-24T14:46:06;16.20;99.90
2002;DHT22;1003;48.002;7.788;2023-04-24T14:48:33;16.10;99.90
2002;DHT22;1003;48.002;7.788;2023-04-24T14:51:00;16.20;99.90
2002;DHT22;1003;48.002;7.788;2023-04-24T14:53:27;16.30;99.90
2002;DHT22;1003;48.002;7.788;2023-04-24T14:55:54;16.20;99.90
2002;DHT22;1003;48.002;7.788;2023-04-24T14:58:21;16.20;99.90
2002;DHT22;1003;48.002;7.788;2023-04-24T15:00:50;16.50;99.90
2002;DHT22;1003;48.002;7.788;2023-04-24T15:03:19;16.70;99.90
2002;DHT22;1003;48.002;7.788;2023-04-24T15:05:47;16.70;99.90
2002;DHT22;1003;48.002;7.788;2023-04-24T15:08:14;16.70;99.90
2002;DHT22;1003;48.002;7.788;2023-04-24T15:10:41;16.60;99.90
2002;DHT22;1003;48.002;7.788;2023-04-24T15:13:08;16.60;99.90
2002;DHT22;1003;48.002;7.788;2023-04-24T15:15:36;16.60;99.90
2002;DHT22;1003;48.002;7.788;2023-04-24T15:18:05;16.50;99.90
2002;DHT22;1003;48.002;7.788;2023-04-24T15:20:34;16.60;99.90
2002;DHT22;1003;48.002;7.788;2023-04-24T15:23:01;16.40;99.90
2002;DHT22;1003;48.002;7.788;2023-04-24T15:25:28;16.20;99.90
2002;DHT22;1003;48.002;7.788;2023-04-24T15:27:55;16.40;99.90
2002;DHT22;1003;48.002;7.788;2023-04-24T15:30:23;16.20;99.90
2002;DHT22;1003;48.002;7.788;2023-04-24T15:32:50;16.20;99.90
2002;DHT22;1003;48.002;7.788;2023-04-24T15:35:19;15.90;99.90
2002;DHT22;1003;48.002;7.788;2023-04-24T15:37:46;15.90;99.90
2002;DHT22;1003;48.002;7.788;2023-04-24T15:40:13;15.70;99.90
2002;DHT22;1003;48.002;7.788;2023-04-24T15:42:42;15.80;99.90
2002;DHT22;1003;48.002;7.788;2023-04-24T15:45:10;15.70;99.90
2002;DHT22;1003;48.002;7.788;2023-04-24T15:47:38;15.60;99.90
2002;DHT22;1003;48.002;7.788;2023-04-24T15:50:06;15.50;99.90
2002;DHT22;1003;48.002;7.788;2023-04-24T15:52:37;15.50;99.90
2002;DHT22;1003;48.002;7.788;2023-04-24T15:55:05;15.60;99.90
2002;DHT22;1003;48.002;7.788;2023-04-24T15:57:32;15.50;99.90
2002;DHT22;1003;48.002;7.788;2023-04-24T16:00:00;15.30;99.90
2002;DHT22;1003;48.002;7.788;2023-04-24T16:02:28;15.00;99.90
2002;DHT22;1003;48.002;7.788;2023-04-24T16:04:55;14.80;99.90
2002;DHT22;1003;48.002;7.788;2023-04-24T16:07:22;14.90;99.90
2002;DHT22;1003;48.002;7.788;2023-04-24T16:09:51;14.80;99.90